Time;durP1;ratioP1;P1;durP2;ratioP2;P2;SDS_P1;SDS_P2;PMS_P1;PMS_P2;Temp;Humidity;BMP_temperature;BMP_pressure;BME280_temperature;BME280_humidity;BME280_pressure;Samples;Min_cycle;Max_cycle;Signal;HPM_P1;HPM_P2
2022/05/25 00:02:18;;;;;;;1.50;0.70;;;;;;;17.64;30.69;99116.34;5133382;27;20079;-64
2022/05/25 00:04:45;;;;;;;1.73;0.77;;;;;;;17.62;30.99;99118.34;5133764;28;20031;-63
2022/05/25 00:07:12;;;;;;;2.88;0.80;;;;;;;17.62;31.19;99114.88;5133835;28;20403;-64
2022/05/25 00:09:38;;;;;;;1.77;0.90;;;;;;;17.60;31.38;99125.72;5133610;28;20038;-65
2022/05/25 00:12:04;;;;;;;2.30;0.88;;;;;;;17.58;31.49;99122.38;5133731;28;20513;-64
2022/05/25 00:14:30;;;;;;;1.25;1.00;;;;;;;17.55;31.35;99120.09;5133624;28;20043;-65
2022/05/25 00:16:55;;;;;;;2.50;0.90;;;;;;;17.53;31.46;99127.44;5134071;27;20035;-62
2022/05/25 00:22:05;;;;;;;1.80;1.10;;;;;;;17.49;31.12;99126.97;5154604;27;20442;-64
2022/05/25 00:24:30;;;;;;;1.33;1.00;;;;;;;17.47;31.20;99130.81;5154206;27;20030;-64
2022/05/25 00:26:56;;;;;;;2.92;1.10;;;;;;;17.47;31.42;99136.16;5154571;27;20113;-64
2022/05/25 00:29:22;;;;;;;1.30;0.88;;;;;;;17.45;31.17;99136.34;5135379;27;20561;-62
2022/05/25 00:31:47;;;;;;;1.88;0.90;;;;;;;17.44;31.26;99139.19;5154213;27;20025;-65
2022/05/25 00:34:13;;;;;;;6.88;1.23;;;;;;;17.41;31.26;99143.06;5154181;27;20031;-65
2022/05/25 00:36:38;;;;;;;1.60;0.90;;;;;;;17.41;31.38;99147.59;5144303;27;20495;-65
2022/05/25 00:39:05;;;;;;;1.52;1.13;;;;;;;17.37;31.55;99142.56;5133403;28;20046;-65
2022/05/25 00:41:31;;;;;;;2.00;1.05;;;;;;;17.37;31.64;99152.44;5133321;28;20027;-65
2022/05/25 00:43:58;;;;;;;2.83;0.90;;;;;;;17.36;31.43;99151.59;5133349;28;20035;-64
2022/05/25 00:46:26;;;;;;;1.80;1.05;;;;;;;17.35;31.45;99149.13;5133337;28;20057;-63
2022/05/25 00:49:03;;;;;;;1.27;1.02;;;;;;;17.34;31.47;99156.28;5132960;28;20026;-64
2022/05/25 00:52:09;;;;;;;2.10;1.08;;;;;;;17.33;31.71;99154.63;5133026;28;20478;-63
2022/05/25 00:54:43;;;;;;;2.70;1.30;;;;;;;17.29;31.85;99150.63;5132551;28;20103;-64
2022/05/25 00:57:15;;;;;;;1.52;1.00;;;;;;;17.32;31.57;99162.84;5133252;28;20050;-65
2022/05/25 00:59:59;;;;;;;2.72;1.63;;;;;;;17.29;31.59;99158.66;5132890;28;20083;-62
2022/05/25 01:02:27;;;;;;;2.17;1.35;;;;;;;17.26;31.78;99161.69;5132941;28;20393;-63
2022/05/25 01:04:52;;;;;;;1.83;1.20;;;;;;;17.23;31.76;99157.50;5132838;28;20031;-62
2022/05/25 01:07:39;;;;;;;1.65;0.90;;;;;;;17.24;31.61;99155.69;5133475;27;20108;-62
2022/05/25 01:10:08;;;;;;;2.33;1.27;;;;;;;17.22;31.74;99155.84;5136462;27;20108;-63
2022/05/25 01:12:33;;;;;;;2.47;1.25;;;;;;;17.23;31.72;99156.69;5137146;27;20031;-63
2022/05/25 01:15:17;;;;;;;2.38;1.20;;;;;;;17.24;32.19;99158.34;5136456;27;20074;-66
2022/05/25 01:17:55;;;;;;;2.22;1.30;;;;;;;17.23;31.96;99162.03;5143606;27;20062;-62
2022/05/25 01:20:40;;;;;;;2.95;1.70;;;;;;;17.20;31.84;99157.88;5157091;27;20026;-63
2022/05/25 01:23:38;;;;;;;1.80;1.10;;;;;;;17.19;32.24;99169.56;5157270;27;20034;-63
2022/05/25 01:26:40;;;;;;;1.60;1.20;;;;;;;17.16;32.13;99167.25;5145600;27;20035;-63
2022/05/25 01:29:46;;;;;;;2.63;1.13;;;;;;;17.14;31.99;99171.06;5136635;27;20034;-63
2022/05/25 01:32:26;;;;;;;1.33;0.82;;;;;;;17.12;31.98;99171.25;5112279;27;20051;-63
2022/05/25 01:35:06;;;;;;;3.47;1.20;;;;;;;17.13;31.86;99170.25;5117642;27;20398;-63
2022/05/25 01:37:41;;;;;;;1.33;1.00;;;;;;;17.14;31.83;99176.41;5153831;27;20035;-63
2022/05/25 01:40:35;;;;;;;3.38;1.45;;;;;;;17.14;32.05;99177.25;5156646;27;20103;-63
2022/05/25 01:43:11;;;;;;;3.47;1.30;;;;;;;17.14;32.14;99184.44;5119283;27;20402;-64
2022/05/25 01:45:44;;;;;;;2.38;0.98;;;;;;;17.14;31.92;99185.28;5156851;27;20113;-64
2022/05/25 01:48:13;;;;;;;3.03;1.30;;;;;;;17.13;32.28;99186.28;5156559;27;20034;-63
2022/05/25 01:50:45;;;;;;;1.40;1.10;;;;;;;17.13;32.22;99193.50;5157112;27;20022;-63
2022/05/25 01:53:15;;;;;;;4.00;1.13;;;;;;;17.13;32.06;99193.50;5156524;27;20031;-63
2022/05/25 01:55:50;;;;;;;2.15;1.42;;;;;;;17.13;32.24;99190.81;5156827;27;20057;-63
2022/05/25 01:58:18;;;;;;;2.10;1.10;;;;;;;17.12;32.19;99191.81;5156312;27;20503;-64
2022/05/25 02:00:55;;;;;;;2.85;1.13;;;;;;;17.12;32.18;99199.84;5156310;27;20399;-64
2022/05/25 02:06:26;;;;;;;2.28;1.13;;;;;;;17.09;32.14;99195.66;5156876;27;20055;-64
2022/05/25 02:09:08;;;;;;;2.75;1.27;;;;;;;17.10;32.41;99204.53;5135882;27;20146;-64
2022/05/25 02:11:39;;;;;;;1.77;1.05;;;;;;;17.10;32.22;99202.66;5135700;27;20034;-64
2022/05/25 02:14:29;;;;;;;2.00;1.10;;;;;;;17.11;32.46;99200.84;5135319;27;20038;-63
2022/05/25 02:17:10;;;;;;;2.08;1.10;;;;;;;17.10;32.69;99202.66;5136166;27;20031;-63
2022/05/25 02:19:38;;;;;;;2.22;1.30;;;;;;;17.10;32.33;99215.22;5154979;27;20031;-64
2022/05/25 02:22:10;;;;;;;3.20;1.35;;;;;;;17.10;32.39;99213.34;5156215;27;20039;-64
2022/05/25 02:25:08;;;;;;;2.67;1.10;;;;;;;17.08;32.50;99208.19;5156080;27;20413;-64
2022/05/25 02:27:41;;;;;;;1.77;1.17;;;;;;;17.10;32.28;99208.00;5141379;27;20412;-64
2022/05/25 02:30:15;;;;;;;2.22;1.45;;;;;;;17.16;32.55;99217.19;5155652;27;20030;-62
2022/05/25 02:32:51;;;;;;;2.47;1.20;;;;;;;17.21;32.28;99212.16;5155663;27;20110;-63
2022/05/25 02:35:18;;;;;;;1.63;1.00;;;;;;;17.24;32.24;99206.47;5155645;27;20053;-63
2022/05/25 02:37:44;;;;;;;2.13;1.00;;;;;;;17.26;32.52;99209.81;5176103;27;20033;-63
2022/05/25 02:40:12;;;;;;;2.25;1.08;;;;;;;17.28;32.49;99213.13;5176351;27;20030;-62
2022/05/25 02:42:40;;;;;;;3.20;1.63;;;;;;;17.26;32.76;99201.78;5176742;27;20120;-62
2022/05/25 02:45:07;;;;;;;3.38;1.38;;;;;;;17.28;32.49;99205.09;5176537;27;20445;-65
2022/05/25 02:47:33;;;;;;;2.67;1.45;;;;;;;17.27;32.63;99205.28;5176236;27;20042;-64
2022/05/25 02:49:59;;;;;;;2.05;1.20;;;;;;;17.27;32.74;99207.97;5176146;27;20505;-63
2022/05/25 02:52:24;;;;;;;2.58;1.40;;;;;;;17.26;32.51;99203.63;5176187;27;20098;-64
2022/05/25 02:54:50;;;;;;;2.38;1.20;;;;;;;17.26;32.58;99206.28;5176120;27;20034;-63
2022/05/25 02:57:16;;;;;;;2.65;1.33;;;;;;;17.28;32.62;99209.63;5147160;27;20019;-63
2022/05/25 02:59:41;;;;;;;3.08;1.35;;;;;;;17.28;32.46;99202.44;5134326;27;20034;-63
2022/05/25 03:02:07;;;;;;;2.30;1.60;;;;;;;17.30;32.31;99203.09;5134361;27;20034;-63
2022/05/25 03:04:34;;;;;;;2.17;1.42;;;;;;;17.34;32.49;99208.94;5134478;27;20038;-63
2022/05/25 03:07:00;;;;;;;3.03;1.60;;;;;;;17.45;32.41;99199.69;5134641;27;20042;-63
2022/05/25 03:09:26;;;;;;;2.22;1.65;;;;;;;17.58;32.14;99199.16;5134257;27;20027;-63
2022/05/25 03:11:53;;;;;;;2.63;1.70;;;;;;;17.72;32.11;99202.94;5134505;27;20031;-63
2022/05/25 03:14:18;;;;;;;2.17;1.27;;;;;;;17.89;32.34;99206.34;5134076;27;20034;-63
2022/05/25 03:16:44;;;;;;;4.10;1.98;;;;;;;17.95;32.15;99209.13;5134205;27;20031;-64
2022/05/25 03:19:09;;;;;;;3.65;1.70;;;;;;;18.10;32.44;99205.72;5153911;27;20427;-63
2022/05/25 03:21:35;;;;;;;2.88;1.83;;;;;;;18.30;32.25;99212.28;5154894;27;20058;-63
2022/05/25 03:24:00;;;;;;;2.20;1.40;;;;;;;18.35;32.33;99213.56;5154917;27;20079;-63
2022/05/25 03:26:26;;;;;;;5.63;2.17;;;;;;;18.38;32.29;99210.53;5154940;27;20035;-64
2022/05/25 03:28:51;;;;;;;3.25;1.77;;;;;;;18.43;32.32;99213.53;5154554;27;20405;-64
2022/05/25 03:31:17;;;;;;;5.05;2.20;;;;;;;18.47;32.27;99222.03;5154369;27;20027;-64
2022/05/25 03:33:43;;;;;;;3.38;2.08;;;;;;;18.49;32.32;99214.66;5154188;27;20569;-63
2022/05/25 03:36:08;;;;;;;3.15;2.42;;;;;;;18.66;32.23;99216.19;5148520;27;20031;-63
2022/05/25 03:38:34;;;;;;;6.45;3.15;;;;;;;18.83;32.07;99221.34;5134044;27;20038;-63
2022/05/25 03:41:01;;;;;;;4.45;2.33;;;;;;;18.83;32.18;99222.22;5133614;27;20054;-64
2022/05/25 03:43:32;;;;;;;3.78;2.15;;;;;;;18.86;32.19;99219.16;5133954;27;20510;-64
2022/05/25 03:45:57;;;;;;;;;;;;;;;18.80;32.26;99216.38;5134497;27;20110;-64
2022/05/25 03:48:23;;;;;;;3.83;2.75;;;;;;;18.76;32.20;99223.94;5133866;27;19962;-64
2022/05/25 03:50:49;;;;;;;3.55;2.85;;;;;;;18.69;31.97;99217.66;5133918;27;20068;-63
2022/05/25 03:53:15;;;;;;;3.75;2.58;;;;;;;18.63;31.82;99216.53;5133440;27;20027;-63
2022/05/25 03:55:41;;;;;;;4.68;2.95;;;;;;;18.60;31.73;99222.25;5133850;27;20031;-63
2022/05/25 03:58:08;;;;;;;3.88;2.70;;;;;;;18.58;31.70;99227.81;5133780;27;20034;-64
2022/05/25 04:00:34;;;;;;;3.72;2.67;;;;;;;18.54;31.75;99220.28;5133730;27;20493;-63
2022/05/25 04:03:02;;;;;;;3.15;2.50;;;;;;;18.55;31.62;99220.13;5133493;28;20074;-64
2022/05/25 04:05:30;;;;;;;6.20;2.70;;;;;;;18.52;31.47;99225.81;5133516;28;20529;-64
2022/05/25 04:07:56;;;;;;;3.05;2.25;;;;;;;18.48;31.61;99221.84;5133715;28;20374;-63
2022/05/25 04:10:22;;;;;;;3.25;2.25;;;;;;;18.44;31.52;99217.88;5133312;28;20019;-63
2022/05/25 04:12:48;;;;;;;3.10;1.85;;;;;;;18.39;31.52;99215.72;5133509;28;20033;-64
2022/05/25 04:15:17;;;;;;;4.57;2.45;;;;;;;18.39;31.59;99228.28;5133652;28;20031;-64
2022/05/25 04:17:43;;;;;;;7.07;1.83;;;;;;;18.34;31.41;99217.25;5140646;27;20058;-64
2022/05/25 04:20:10;;;;;;;3.28;1.67;;;;;;;18.32;31.64;99211.25;5154161;27;20034;-64
2022/05/25 04:22:36;;;;;;;2.70;1.83;;;;;;;18.32;31.79;99224.63;5154921;27;20434;-63
2022/05/25 04:25:07;;;;;;;4.50;2.10;;;;;;;18.30;31.51;99224.84;5152210;27;20034;-63
2022/05/25 04:27:34;;;;;;;4.68;1.95;;;;;;;18.29;31.52;99229.38;5133519;28;20031;-64
2022/05/25 04:29:59;;;;;;;3.00;1.90;;;;;;;18.26;31.58;99229.72;5133237;28;20449;-63
2022/05/25 04:32:25;;;;;;;2.92;1.77;;;;;;;18.25;31.39;99229.88;5133243;28;20058;-63
2022/05/25 04:34:50;;;;;;;3.15;2.25;;;;;;;18.21;31.62;99228.59;5133695;28;20105;-63
2022/05/25 04:40:00;;;;;;;5.78;2.22;;;;;;;18.19;31.62;99233.28;5153682;27;20042;-63
2022/05/25 04:42:29;;;;;;;3.55;1.30;;;;;;;18.19;31.22;99234.09;5154123;27;20035;-63
2022/05/25 04:45:00;;;;;;;1.90;1.55;;;;;;;18.33;31.29;99231.66;5157615;27;20030;-63
2022/05/25 04:47:31;;;;;;;2.92;2.15;;;;;;;18.45;31.47;99240.97;5157708;27;20033;-63
2022/05/25 04:49:57;;;;;;;2.67;1.98;;;;;;;18.48;31.32;99240.59;5158345;27;20029;-63
2022/05/25 04:52:23;;;;;;;2.58;2.05;;;;;;;18.49;31.32;99247.63;5157672;27;20400;-62
2022/05/25 04:54:48;;;;;;;3.50;1.98;;;;;;;18.49;31.17;99249.47;5157485;27;20030;-63
2022/05/25 04:57:19;;;;;;;2.28;1.50;;;;;;;18.46;31.14;99250.66;5157954;27;20026;-64
2022/05/25 04:59:49;;;;;;;3.05;1.70;;;;;;;18.45;31.00;99249.00;5157685;27;20109;-63
2022/05/25 05:02:15;;;;;;;3.05;2.35;;;;;;;18.41;31.05;99243.16;5157737;27;20030;-63
2022/05/25 05:04:41;;;;;;;2.50;1.80;;;;;;;18.39;30.95;99247.84;5157333;27;20074;-63
2022/05/25 05:07:06;;;;;;;2.20;1.30;;;;;;;18.38;31.21;99248.03;5157185;27;20027;-63
2022/05/25 05:09:36;;;;;;;2.38;1.60;;;;;;;18.36;31.03;99250.06;5157312;27;20026;-63
2022/05/25 05:12:03;;;;;;;2.28;1.17;;;;;;;18.34;31.02;99244.03;5138547;27;20121;-64
2022/05/25 05:14:28;;;;;;;2.17;1.10;;;;;;;18.34;30.97;99250.25;5153381;27;20084;-63
2022/05/25 05:16:58;;;;;;;1.67;1.10;;;;;;;18.38;30.66;99246.19;5136683;27;20151;-63
2022/05/25 05:19:28;;;;;;;1.92;1.20;;;;;;;18.40;31.01;99244.16;5157104;27;20043;-63
2022/05/25 05:21:55;;;;;;;1.90;1.35;;;;;;;18.42;30.82;99244.81;5156962;27;20039;-63
2022/05/25 05:24:28;;;;;;;1.77;1.17;;;;;;;18.41;30.78;99250.38;5156874;27;20027;-63
2022/05/25 05:26:54;;;;;;;1.85;1.48;;;;;;;18.40;30.63;99244.16;5157182;27;20038;-62
2022/05/25 05:29:20;;;;;;;1.50;1.10;;;;;;;18.42;30.86;99252.03;5156920;27;20462;-63
2022/05/25 05:31:46;;;;;;;1.25;0.90;;;;;;;18.46;30.59;99247.97;5156992;27;20031;-63
2022/05/25 05:34:12;;;;;;;2.22;1.17;;;;;;;18.50;30.82;99243.09;5156717;27;20502;-63
2022/05/25 05:37:03;;;;;;;2.92;2.05;;;;;;;18.52;30.75;99241.91;5167152;27;20049;-63
2022/05/25 05:39:33;;;;;;;1.75;1.30;;;;;;;18.65;30.66;99245.81;5147528;27;20038;-63
2022/05/25 05:42:05;;;;;;;2.22;1.20;;;;;;;18.83;30.84;99242.81;5177285;27;20034;-63
2022/05/25 05:44:38;;;;;;;1.60;0.93;;;;;;;18.98;30.77;99235.66;5177557;27;20102;-63
2022/05/25 05:47:09;;;;;;;2.97;1.15;;;;;;;19.12;30.72;99236.69;5177779;27;20117;-64
2022/05/25 05:49:36;;;;;;;1.55;0.90;;;;;;;19.15;30.40;99244.38;5177696;27;20037;-63
2022/05/25 05:52:02;;;;;;;1.60;0.90;;;;;;;19.22;30.60;99236.41;5177692;27;20058;-63
2022/05/25 05:54:28;;;;;;;3.50;1.13;;;;;;;19.24;30.72;99237.06;5177482;27;20448;-63
2022/05/25 05:56:54;;;;;;;1.42;0.90;;;;;;;19.25;30.50;99237.88;5156200;27;20027;-64
2022/05/25 05:59:19;;;;;;;1.83;1.23;;;;;;;19.26;30.33;99234.19;5135644;27;20043;-64
2022/05/25 06:01:45;;;;;;;1.80;1.23;;;;;;;19.20;30.30;99231.22;5135866;27;20045;-64
2022/05/25 06:04:11;;;;;;;1.08;0.90;;;;;;;19.19;30.11;99231.41;5135386;27;20088;-64
2022/05/25 06:06:37;;;;;;;2.08;1.10;;;;;;;19.15;30.21;99230.97;5135629;27;20438;-64
2022/05/25 06:09:03;;;;;;;3.70;1.40;;;;;;;19.12;29.95;99231.31;5117009;27;20074;-63
2022/05/25 06:11:29;;;;;;;3.33;1.05;;;;;;;19.14;29.94;99237.34;5135344;27;20076;-64
2022/05/25 06:13:54;;;;;;;1.48;0.73;;;;;;;19.14;29.86;99237.34;5135604;27;20038;-64
2022/05/25 06:21:48;;;;;;;1.73;0.85;;;;;;;19.18;30.02;99238.66;5156536;27;20125;-64
2022/05/25 06:24:13;;;;;;;1.02;0.75;;;;;;;19.21;29.71;99235.56;5155923;27;20489;-64
2022/05/25 06:26:39;;;;;;;2.17;1.08;;;;;;;19.24;29.92;99233.53;5156098;27;20122;-64
2022/05/25 06:29:04;;;;;;;1.23;0.90;;;;;;;19.25;30.15;99237.88;5156008;27;20027;-63
2022/05/25 06:31:31;;;;;;;1.60;1.10;;;;;;;19.27;30.12;99239.38;5155886;27;20030;-64
2022/05/25 06:33:58;;;;;;;1.58;1.25;;;;;;;19.28;29.92;99232.16;5155545;27;20031;-63
2022/05/25 06:36:29;;;;;;;1.83;1.00;;;;;;;19.29;30.17;99231.97;5147872;27;20050;-64
2022/05/25 06:38:56;;;;;;;1.55;1.23;;;;;;;19.30;30.18;99232.81;5135040;27;20027;-64
2022/05/25 06:41:22;;;;;;;2.17;1.20;;;;;;;19.32;30.26;99233.47;5134997;27;20031;-63
2022/05/25 06:43:48;;;;;;;2.53;1.60;;;;;;;19.34;30.39;99234.09;5135235;27;20046;-63
2022/05/25 06:46:19;;;;;;;1.55;1.02;;;;;;;19.35;30.39;99236.59;5116374;27;20035;-64
2022/05/25 06:48:44;;;;;;;1.02;0.80;;;;;;;19.36;30.15;99235.59;5134888;27;20397;-64
2022/05/25 06:51:15;;;;;;;2.58;1.00;;;;;;;19.39;29.87;99238.91;5134968;27;20092;-64
2022/05/25 06:53:41;;;;;;;1.95;0.90;;;;;;;19.34;29.77;99236.78;5134755;27;20077;-64
2022/05/25 06:56:07;;;;;;;1.90;1.25;;;;;;;19.33;29.89;99241.31;5134746;27;20058;-64
2022/05/25 06:58:33;;;;;;;5.20;1.20;;;;;;;19.35;29.77;99241.13;5134559;27;20455;-64
2022/05/25 07:00:59;;;;;;;1.67;0.95;;;;;;;19.33;30.11;99227.91;5134629;27;20043;-64
2022/05/25 07:03:25;;;;;;;1.35;0.95;;;;;;;19.36;29.83;99240.09;5134506;27;20035;-64
2022/05/25 07:05:50;;;;;;;1.98;1.15;;;;;;;19.38;29.95;99231.88;5133861;27;20038;-64
2022/05/25 07:08:16;;;;;;;2.60;1.10;;;;;;;19.42;29.48;99233.16;5134580;27;20458;-64
2022/05/25 07:10:45;;;;;;;1.30;0.85;;;;;;;19.43;29.36;99237.50;5134331;27;20393;-64
2022/05/25 07:13:15;;;;;;;2.88;0.93;;;;;;;19.42;29.70;99236.69;5134441;27;20367;-64
2022/05/25 07:15:42;;;;;;;1.45;1.10;;;;;;;19.41;29.95;99236.88;5134382;27;20398;-64
2022/05/25 07:18:07;;;;;;;3.47;1.00;;;;;;;19.40;29.67;99233.34;5126342;27;20448;-64
2022/05/25 07:20:33;;;;;;;2.58;1.35;;;;;;;19.40;29.74;99238.72;5154561;27;20125;-64
2022/05/25 07:22:59;;;;;;;1.33;1.00;;;;;;;19.39;29.72;99229.00;5154987;27;20374;-64
2022/05/25 07:25:25;;;;;;;1.60;1.20;;;;;;;19.39;29.67;99220.97;5151702;27;20076;-64
2022/05/25 07:27:51;;;;;;;1.63;1.02;;;;;;;19.40;29.45;99224.50;5134189;27;20035;-64
2022/05/25 07:30:16;;;;;;;1.83;1.15;;;;;;;19.40;29.38;99230.69;5133846;27;20065;-63
2022/05/25 07:32:43;;;;;;;1.48;1.20;;;;;;;19.41;29.62;99224.28;5134146;27;20035;-64
2022/05/25 07:35:11;;;;;;;1.83;1.17;;;;;;;19.42;29.90;99231.31;5134086;27;20030;-64
2022/05/25 07:37:38;;;;;;;1.83;1.20;;;;;;;19.41;29.70;99229.66;5152252;27;20030;-64
2022/05/25 07:40:11;;;;;;;4.75;1.42;;;;;;;19.41;29.56;99235.03;5153764;27;20038;-62
2022/05/25 07:42:39;;;;;;;3.75;1.10;;;;;;;19.40;29.59;99227.19;5154360;27;20058;-62
2022/05/25 07:45:05;;;;;;;2.72;1.02;;;;;;;19.39;29.70;99231.69;5154203;27;20037;-63
2022/05/25 07:47:32;;;;;;;2.08;1.25;;;;;;;19.38;29.45;99232.72;5154636;27;20038;-63
2022/05/25 07:49:58;;;;;;;2.20;1.10;;;;;;;19.39;29.35;99236.25;5154844;27;20034;-63
2022/05/25 07:52:27;;;;;;;1.65;0.95;;;;;;;19.40;29.64;99237.91;5154209;27;20046;-64
2022/05/25 07:54:55;;;;;;;4.18;1.17;;;;;;;19.38;29.96;99234.56;5151897;27;20164;-65
2022/05/25 07:57:20;;;;;;;2.55;1.38;;;;;;;19.38;30.24;99232.72;5148103;27;20059;-64
2022/05/25 07:59:46;;;;;;;4.47;1.50;;;;;;;19.41;30.07;99229.66;5151625;27;20027;-64
2022/05/25 08:08:06;;;;;;;3.65;1.77;;;;;;;19.46;30.81;99234.47;5144166;27;20037;-65
2022/05/25 08:10:32;;;;;;;7.95;1.95;;;;;;;19.48;30.62;99237.78;5150738;27;20027;-65
2022/05/25 08:13:00;;;;;;;3.70;1.90;;;;;;;19.50;30.64;99233.91;5153074;27;20030;-64
2022/05/25 08:15:28;;;;;;;4.63;2.10;;;;;;;19.53;30.29;99235.41;5135305;27;20123;-64
2022/05/25 08:17:55;;;;;;;2.95;2.03;;;;;;;19.53;30.19;99240.75;5153443;27;20141;-63
2022/05/25 08:20:21;;;;;;;7.65;1.95;;;;;;;19.55;30.03;99236.03;5154149;27;20034;-64
2022/05/25 08:22:46;;;;;;;2.90;2.00;;;;;;;19.57;29.97;99242.03;5153733;27;20481;-64
2022/05/25 08:25:14;;;;;;;9.63;1.92;;;;;;;19.59;29.93;99234.63;5148800;27;20046;-65
2022/05/25 08:27:41;;;;;;;6.45;2.70;;;;;;;19.58;29.97;99235.66;5142572;27;20022;-65
2022/05/25 08:30:09;;;;;;;16.45;3.83;;;;;;;19.59;30.08;99231.94;5148788;27;20581;-66
2022/05/25 08:32:35;;;;;;;17.02;4.50;;;;;;;19.61;30.14;99235.28;5151645;27;20113;-65
2022/05/25 08:35:01;;;;;;;15.85;5.25;;;;;;;19.62;30.21;99230.75;5147054;27;20573;-65
2022/05/25 08:37:26;;;;;;;32.95;8.68;;;;;;;19.63;30.12;99221.69;5146854;27;20034;-65
2022/05/25 08:39:52;;;;;;;51.22;13.07;;;;;;;19.64;30.96;99231.38;5156811;27;20031;-64
2022/05/25 08:42:22;;;;;;;14.55;4.40;;;;;;;19.66;30.19;99240.06;5157803;27;20030;-64
2022/05/25 08:44:49;;;;;;;28.65;8.57;;;;;;;19.65;30.00;99228.53;5138990;27;20026;-64
2022/05/25 08:47:15;;;;;;;30.95;8.25;;;;;;;19.67;29.87;99231.00;5157970;27;20031;-64
2022/05/25 08:49:48;;;;;;;31.13;10.18;;;;;;;19.64;30.12;99224.19;5157212;27;20508;-64
2022/05/25 08:52:28;;;;;;;30.55;8.27;;;;;;;19.65;30.25;99222.31;5157690;27;20079;-64
2022/05/25 08:54:54;;;;;;;21.90;7.57;;;;;;;19.64;30.17;99215.28;5154000;27;20031;-64
2022/05/25 08:57:25;;;;;;;23.70;7.70;;;;;;;19.65;29.77;99215.09;5137147;27;20378;-64
2022/05/25 09:00:10;;;;;;;34.47;9.85;;;;;;;19.66;30.04;99211.41;5146954;27;20401;-64
2022/05/25 09:03:07;;;;;;;33.47;8.57;;;;;;;19.63;29.98;99211.78;5156607;27;20050;-64
2022/05/25 09:05:34;;;;;;;28.60;9.52;;;;;;;19.63;30.06;99202.91;5155523;27;20554;-64
2022/05/25 09:08:36;;;;;;;30.67;11.10;;;;;;;19.64;30.43;99209.91;5156886;27;20130;-64
2022/05/25 09:11:07;;;;;;;24.33;6.13;;;;;;;19.64;30.17;99216.13;5157584;27;20057;-64
2022/05/25 09:14:02;;;;;;;15.63;5.97;;;;;;;19.63;30.21;99210.97;5157428;27;20030;-65
2022/05/25 09:16:32;;;;;;;20.95;9.23;;;;;;;19.62;29.85;99222.72;5145800;27;20505;-64
2022/05/25 09:19:05;;;;;;;24.48;8.82;;;;;;;19.61;30.16;99224.53;5155501;27;20050;-64
2022/05/25 09:21:36;;;;;;;32.35;10.68;;;;;;;19.62;30.35;99220.03;5156333;27;20087;-65
2022/05/25 09:24:04;;;;;;;;;;;;;;;19.55;30.58;99219.09;5155958;27;20078;-64
2022/05/25 09:26:31;;;;;;;30.58;10.48;;;;;;;19.56;30.88;99220.75;5155603;27;19918;-64
2022/05/25 09:29:01;;;;;;;29.48;9.93;;;;;;;19.61;30.95;99226.41;5155163;27;20037;-64
2022/05/25 09:31:33;;;;;;;25.17;7.93;;;;;;;19.62;30.74;99214.66;5155853;27;20023;-64
2022/05/25 09:34:03;;;;;;;26.10;8.27;;;;;;;19.63;30.60;99213.63;5153228;27;20328;-64
2022/05/25 09:36:50;;;;;;;17.08;5.50;;;;;;;19.63;30.38;99227.06;5154527;27;20045;-64
2022/05/25 09:39:30;;;;;;;25.52;7.38;;;;;;;19.62;30.52;99222.72;5155790;27;20393;-64
2022/05/25 09:41:58;;;;;;;12.77;4.05;;;;;;;19.60;29.94;99217.50;5155801;27;20031;-65
2022/05/25 09:44:26;;;;;;;11.50;4.60;;;;;;;19.59;29.68;99215.84;5154830;27;20050;-64
2022/05/25 09:46:59;;;;;;;16.05;4.60;;;;;;;19.60;29.43;99227.44;5153639;27;20070;-65
2022/05/25 09:49:48;;;;;;;14.40;4.88;;;;;;;19.60;29.70;99205.97;5155496;27;20034;-65
2022/05/25 09:52:30;;;;;;;27.38;4.78;;;;;;;19.57;29.77;99215.19;5142432;27;20169;-65
2022/05/25 09:55:03;;;;;;;14.15;3.65;;;;;;;19.57;29.74;99201.78;5154186;27;20030;-65
2022/05/25 09:57:33;;;;;;;16.00;5.80;;;;;;;19.56;30.15;99202.78;5155451;27;20031;-65
2022/05/25 10:00:02;;;;;;;20.55;6.50;;;;;;;19.57;30.72;99201.78;5154701;27;20027;-65
2022/05/25 10:02:35;;;;;;;17.60;4.90;;;;;;;19.59;30.52;99205.09;5154845;27;20523;-64
2022/05/25 10:05:12;;;;;;;11.43;4.28;;;;;;;19.59;30.47;99201.59;5155033;27;20026;-65
2022/05/25 10:07:48;;;;;;;9.38;2.63;;;;;;;19.59;30.02;99194.38;5154829;27;20431;-65
2022/05/25 10:10:14;;;;;;;12.23;4.38;;;;;;;19.58;29.82;99191.88;5154983;27;20383;-65
2022/05/25 10:12:39;;;;;;;12.45;3.90;;;;;;;19.57;30.08;99198.28;5154788;27;20031;-65
2022/05/25 10:15:28;;;;;;;9.75;3.50;;;;;;;19.58;29.97;99203.44;5154008;27;20448;-65
2022/05/25 10:17:54;;;;;;;8.98;3.22;;;;;;;19.55;30.11;99206.53;5155076;27;20046;-65
2022/05/25 10:20:53;;;;;;;7.55;3.75;;;;;;;19.55;30.23;99187.75;5156137;27;20037;-64
2022/05/25 10:23:18;;;;;;;7.18;2.97;;;;;;;19.56;30.40;99199.28;5137472;27;20086;-65
2022/05/25 10:25:48;;;;;;;6.75;3.13;;;;;;;19.54;30.58;99191.44;5156036;27;20057;-64
2022/05/25 10:28:31;;;;;;;5.97;3.50;;;;;;;19.57;30.47;99190.22;5155684;27;20438;-64
2022/05/25 10:36:56;;;;;;;9.52;4.60;;;;;;;19.57;30.85;99180.31;5155735;27;20033;-65
2022/05/25 10:39:30;;;;;;;5.88;2.67;;;;;;;19.57;30.05;99172.25;5141417;27;20038;-66
2022/05/25 10:42:04;;;;;;;5.68;2.40;;;;;;;19.58;30.14;99183.84;5154674;27;20031;-66
2022/05/25 10:44:59;;;;;;;4.75;2.35;;;;;;;19.59;30.08;99169.41;5155445;27;20489;-66
2022/05/25 10:47:38;;;;;;;8.73;3.90;;;;;;;19.59;30.62;99185.50;5150256;27;20047;-65
2022/05/25 10:50:11;;;;;;;8.85;2.65;;;;;;;19.59;30.49;99172.09;5154975;27;20057;-65
2022/05/25 10:52:42;;;;;;;2.42;1.52;;;;;;;19.60;30.32;99168.38;5155005;27;20030;-66
2022/05/25 10:55:09;;;;;;;;;;;;;;;19.52;30.43;99170.16;5155314;27;20037;-66
2022/05/25 10:57:59;;;;;;;4.68;1.98;;;;;;;19.54;30.04;99164.59;5154963;27;20303;-65
2022/05/25 11:00:30;;;;;;;4.85;2.03;;;;;;;19.55;29.77;99162.75;5154719;27;20034;-65
2022/05/25 11:03:14;;;;;;;4.47;1.80;;;;;;;19.56;29.38;99157.19;5155142;27;20497;-65
2022/05/25 11:05:52;;;;;;;5.13;2.05;;;;;;;19.56;29.74;99151.81;5154709;27;20396;-65
2022/05/25 11:08:42;;;;;;;4.55;1.58;;;;;;;19.56;29.78;99148.31;5152959;27;20034;-66
2022/05/25 11:11:22;;;;;;;5.15;2.20;;;;;;;19.55;30.02;99142.13;5154701;27;20427;-65
2022/05/25 11:13:59;;;;;;;6.20;2.40;;;;;;;19.56;30.47;99145.63;5134542;27;20101;-65
2022/05/25 11:16:43;;;;;;;2.63;1.80;;;;;;;19.57;31.01;99147.28;5146536;27;20034;-65
2022/05/25 11:19:14;;;;;;;4.60;2.15;;;;;;;19.58;30.36;99143.59;5154208;27;20230;-66
2022/05/25 11:21:58;;;;;;;;;;;;;;;19.50;30.57;99139.16;5154854;27;20034;-66
2022/05/25 11:24:43;;;;;;;4.22;1.50;;;;;;;19.51;29.96;99141.66;5153909;27;19915;-66
2022/05/25 11:27:34;;;;;;;3.35;1.55;;;;;;;19.51;29.59;99136.28;5154243;27;20405;-63
2022/05/25 11:30:05;;;;;;;2.45;1.35;;;;;;;19.52;29.51;99135.25;5155407;27;20034;-63
2022/05/25 11:32:37;;;;;;;;;;;;;;;19.47;29.97;99139.53;5155191;27;20038;-65
2022/05/25 11:35:12;;;;;;;4.22;1.60;;;;;;;19.49;29.73;99142.88;5154084;27;19919;-65
2022/05/25 11:37:52;;;;;;;5.75;1.75;;;;;;;19.50;29.86;99137.31;5154446;27;20137;-65
2022/05/25 11:40:27;;;;;;;4.40;1.23;;;;;;;19.52;29.99;99137.13;5154067;27;20057;-65
2022/05/25 11:43:27;;;;;;;3.30;1.00;;;;;;;19.52;29.85;99137.94;5154139;27;20031;-65
2022/05/25 11:46:08;;;;;;;3.58;1.15;;;;;;;19.52;29.84;99146.00;5154728;27;20062;-65
2022/05/25 11:49:07;;;;;;;3.57;1.30;;;;;;;19.50;29.90;99145.34;5154029;27;20039;-65
2022/05/25 11:51:39;;;;;;;8.50;1.75;;;;;;;19.51;29.84;99147.00;5154274;27;20034;-65
2022/05/25 11:54:32;;;;;;;3.85;1.98;;;;;;;19.52;29.56;99139.81;5154325;27;20027;-65
2022/05/25 11:57:10;;;;;;;4.47;1.42;;;;;;;19.52;29.50;99147.88;5145504;27;20371;-66
2022/05/25 12:00:01;;;;;;;2.33;1.35;;;;;;;19.51;29.40;99155.06;5142290;27;20172;-66
2022/05/25 12:02:35;;;;;;;2.17;1.30;;;;;;;19.50;29.14;99148.03;5154052;27;20030;-65
2022/05/25 12:05:15;;;;;;;2.72;1.70;;;;;;;19.50;29.08;99139.97;5152786;27;20030;-65
2022/05/25 12:08:03;;;;;;;2.00;1.17;;;;;;;19.52;29.23;99137.94;5153885;27;20046;-65
2022/05/25 12:10:36;;;;;;;3.85;1.35;;;;;;;19.50;29.00;99139.16;5154079;27;20157;-65
2022/05/25 12:13:21;;;;;;;1.83;0.98;;;;;;;19.51;29.27;99133.59;5154098;27;20489;-65
2022/05/25 12:15:59;;;;;;;3.50;1.23;;;;;;;19.50;29.05;99144.53;5133698;28;20035;-65
2022/05/25 12:18:56;;;;;;;3.20;1.23;;;;;;;19.50;29.04;99131.94;5146499;27;20055;-66
2022/05/25 12:21:50;;;;;;;5.57;1.33;;;;;;;19.49;29.28;99127.59;5152659;27;20074;-65